Time;durP1;ratioP1;P1;durP2;ratioP2;P2;SDS_P1;SDS_P2;PMS_P1;PMS_P2;Temp;Humidity;BMP_temperature;BMP_pressure;BME280_temperature;BME280_humidity;BME280_pressure;Samples;Min_cycle;Max_cycle;Signal;HPM_P1;HPM_P2
2022/05/27 00:00:06;;;;;;;2.90;1.60;;;15.20;95.60;;;;;;5068861;28;20047;-72
2022/05/27 00:02:32;;;;;;;2.42;0.90;;;15.80;93.90;;;;;;5070735;28;20052;-71
2022/05/27 00:04:58;;;;;;;0.88;0.80;;;16.30;92.60;;;;;;5067060;28;20143;-72
2022/05/27 00:07:24;;;;;;;1.20;0.90;;;16.50;92.10;;;;;;5066885;28;20036;-72
2022/05/27 00:09:50;;;;;;;9.27;1.17;;;16.60;91.80;;;;;;5065960;28;20048;-75
2022/05/27 00:12:17;;;;;;;2.45;1.08;;;16.70;91.50;;;;;;5065562;28;20032;-71
2022/05/27 00:14:43;;;;;;;3.63;1.55;;;16.60;91.50;;;;;;5068199;28;20035;-72
2022/05/27 00:17:09;;;;;;;2.15;1.10;;;16.80;91.20;;;;;;5071926;28;20040;-72
2022/05/27 00:19:35;;;;;;;1.10;0.90;;;16.70;91.50;;;;;;5070901;28;20036;-71
2022/05/27 00:22:01;;;;;;;4.82;1.17;;;16.60;91.80;;;;;;5062709;28;20040;-72
2022/05/27 00:24:27;;;;;;;1.27;1.10;;;16.50;91.60;;;;;;5067462;28;20025;-72
2022/05/27 00:26:54;;;;;;;3.13;0.88;;;16.40;91.90;;;;;;5070304;28;20036;-72
2022/05/27 00:29:20;;;;;;;2.40;1.48;;;16.40;92.00;;;;;;5065860;28;20036;-72
2022/05/27 00:31:46;;;;;;;2.83;1.13;;;16.50;92.00;;;;;;5069405;28;20028;-72
2022/05/27 00:34:14;;;;;;;1.17;1.08;;;16.30;92.20;;;;;;5068089;28;20040;-71
2022/05/27 00:36:40;;;;;;;1.23;1.10;;;16.10;92.70;;;;;;5067904;28;20048;-72
2022/05/27 00:39:06;;;;;;;1.25;0.95;;;16.10;92.70;;;;;;5071047;28;20024;-72
2022/05/27 00:41:33;;;;;;;2.40;1.10;;;16.20;92.60;;;;;;5072964;28;20036;-71
2022/05/27 00:43:59;;;;;;;2.55;1.13;;;16.30;92.50;;;;;;5068577;28;20044;-71
2022/05/27 00:46:31;;;;;;;1.70;1.33;;;16.30;92.50;;;;;;5073322;28;20052;-71
2022/05/27 00:49:26;;;;;;;1.15;0.90;;;16.30;92.40;;;;;;5073938;28;20037;-74
2022/05/27 00:52:08;;;;;;;0.93;0.73;;;16.20;92.40;;;;;;5071734;28;20376;-72
2022/05/27 00:54:34;;;;;;;2.92;0.98;;;16.20;92.20;;;;;;5068140;28;20041;-72
2022/05/27 00:57:12;;;;;;;1.40;1.20;;;16.10;92.90;;;;;;5072695;28;20037;-72
2022/05/27 01:00:09;;;;;;;3.05;1.13;;;16.10;93.10;;;;;;5053370;28;20037;-72
2022/05/27 01:02:36;;;;;;;1.27;0.98;;;16.20;93.00;;;;;;5055268;28;20067;-72
2022/05/27 01:05:05;;;;;;;1.95;1.00;;;16.30;92.60;;;;;;5071218;28;20033;-72
2022/05/27 01:07:31;;;;;;;2.72;1.33;;;16.30;92.70;;;;;;5074178;28;20032;-73
2022/05/27 01:10:00;;;;;;;3.10;1.02;;;16.20;92.90;;;;;;5063030;28;20044;-73
2022/05/27 01:13:03;;;;;;;2.65;1.27;;;16.10;93.00;;;;;;5068366;28;20032;-72
2022/05/27 01:16:13;;;;;;;1.70;1.17;;;15.90;93.30;;;;;;5071163;28;20040;-72
2022/05/27 01:22:38;;;;;;;1.75;1.00;;;15.80;94.00;;;;;;4907384;29;20048;-72
2022/05/27 01:25:13;;;;;;;1.15;0.95;;;15.70;94.70;;;;;;5067288;28;20041;-72
2022/05/27 01:28:04;;;;;;;1.05;0.80;;;15.70;94.70;;;;;;5072362;28;20021;-72
2022/05/27 01:31:00;;;;;;;2.97;1.58;;;15.60;94.80;;;;;;5070666;28;20044;-72
2022/05/27 01:33:38;;;;;;;1.35;1.25;;;15.70;94.80;;;;;;5057749;28;20041;-73
2022/05/27 01:36:30;;;;;;;2.17;1.52;;;15.60;95.00;;;;;;5069740;28;20037;-73
2022/05/27 01:39:19;;;;;;;4.25;1.60;;;15.60;95.10;;;;;;5016254;28;20040;-72
2022/05/27 01:41:48;;;;;;;1.52;1.25;;;15.80;94.70;;;;;;5064587;28;20041;-71
2022/05/27 01:44:32;;;;;;;1.65;1.05;;;15.90;94.40;;;;;;5070132;28;20389;-73
2022/05/27 01:47:02;;;;;;;3.92;1.17;;;15.90;94.30;;;;;;5067577;28;20056;-71
2022/05/27 01:49:46;;;;;;;1.15;0.80;;;15.80;94.60;;;;;;5067467;28;20492;-71
2022/05/27 01:52:29;;;;;;;1.60;1.08;;;15.60;94.80;;;;;;5069921;28;20032;-71
2022/05/27 01:55:01;;;;;;;9.18;1.98;;;15.50;94.90;;;;;;5068266;28;20043;-71
2022/05/27 01:57:37;;;;;;;3.08;1.45;;;15.40;95.20;;;;;;5073668;28;20032;-70
2022/05/27 02:00:11;;;;;;;1.35;1.13;;;15.20;96.00;;;;;;5067728;28;20048;-73
2022/05/27 02:02:43;;;;;;;3.38;2.00;;;15.00;96.70;;;;;;5072252;28;20397;-74
2022/05/27 02:05:15;;;;;;;1.95;1.45;;;15.00;97.10;;;;;;5072374;28;20225;-72
2022/05/27 02:07:50;;;;;;;2.38;1.25;;;15.20;97.00;;;;;;5068880;28;20477;-73
2022/05/27 02:10:25;;;;;;;4.85;1.70;;;15.30;96.60;;;;;;5071335;28;20517;-71
2022/05/27 02:13:07;;;;;;;1.98;1.10;;;15.50;96.40;;;;;;5061823;28;20032;-71
2022/05/27 02:15:39;;;;;;;2.03;1.30;;;15.50;96.40;;;;;;5067270;28;20044;-71
2022/05/27 02:18:14;;;;;;;4.07;1.92;;;15.50;96.20;;;;;;5053267;28;20056;-71
2022/05/27 02:20:47;;;;;;;1.45;1.05;;;15.50;96.40;;;;;;5069139;28;20024;-72
2022/05/27 02:23:24;;;;;;;1.50;1.27;;;15.50;96.30;;;;;;5066816;28;20032;-70
2022/05/27 02:25:51;;;;;;;3.42;1.90;;;15.60;95.90;;;;;;5068713;28;20032;-73
2022/05/27 02:28:23;;;;;;;3.10;1.75;;;15.70;95.80;;;;;;5067356;28;20541;-70
2022/05/27 02:30:57;;;;;;;3.00;1.42;;;15.60;96.00;;;;;;5052669;28;20505;-72
2022/05/27 02:36:28;;;;;;;2.45;2.25;;;15.40;96.90;;;;;;5064621;28;20040;-71
2022/05/27 02:38:54;;;;;;;3.33;1.88;;;15.50;96.50;;;;;;5062996;28;20032;-71
2022/05/27 02:41:26;;;;;;;2.10;1.65;;;15.60;96.30;;;;;;5063902;28;20396;-72
2022/05/27 02:44:27;;;;;;;2.72;1.88;;;15.70;96.20;;;;;;5072082;28;20029;-72
2022/05/27 02:47:13;;;;;;;1.77;1.45;;;15.80;96.10;;;;;;5070533;28;20033;-70
2022/05/27 02:49:54;;;;;;;7.03;1.95;;;15.80;96.00;;;;;;5071189;28;20032;-70
2022/05/27 02:52:32;;;;;;;4.90;2.40;;;15.80;95.60;;;;;;5065888;28;20032;-71
2022/05/27 02:55:18;;;;;;;7.38;2.30;;;15.80;95.70;;;;;;5071870;28;20032;-71
2022/05/27 02:57:48;;;;;;;3.22;1.58;;;15.80;95.80;;;;;;5036246;28;20048;-71
2022/05/27 03:00:23;;;;;;;1.85;1.55;;;15.80;95.80;;;;;;5052090;28;20037;-70
2022/05/27 03:02:49;;;;;;;3.60;1.45;;;15.80;95.70;;;;;;5061355;28;20049;-70
2022/05/27 03:05:19;;;;;;;3.35;1.85;;;15.90;95.70;;;;;;5066927;28;20033;-70
2022/05/27 03:07:57;;;;;;;2.95;2.17;;;15.80;95.80;;;;;;5068445;28;20051;-72
2022/05/27 03:10:32;;;;;;;6.65;2.63;;;15.90;95.60;;;;;;5062349;28;20089;-72
2022/05/27 03:13:01;;;;;;;3.30;2.13;;;15.90;95.90;;;;;;5069788;28;20040;-72
2022/05/27 03:15:50;;;;;;;1.50;1.40;;;15.90;95.50;;;;;;5069931;28;20075;-72
2022/05/27 03:18:28;;;;;;;2.42;1.88;;;15.90;95.70;;;;;;5071208;28;20051;-73
2022/05/27 03:20:57;;;;;;;4.60;2.40;;;15.90;95.90;;;;;;5069338;28;20048;-72
2022/05/27 03:23:49;;;;;;;4.95;1.92;;;15.90;95.80;;;;;;5070145;28;20051;-72
2022/05/27 03:26:27;;;;;;;2.20;1.80;;;15.90;95.70;;;;;;5066856;28;20025;-72
2022/05/27 03:29:04;;;;;;;2.83;1.95;;;15.90;95.90;;;;;;5066844;28;20047;-73
2022/05/27 03:31:38;;;;;;;3.72;2.60;;;15.80;95.50;;;;;;5065111;28;20047;-72
2022/05/27 03:34:33;;;;;;;2.97;1.55;;;15.80;95.70;;;;;;5070435;28;20076;-72
2022/05/27 03:37:05;;;;;;;2.15;1.90;;;15.80;95.80;;;;;;5065396;28;20409;-72
2022/05/27 03:39:52;;;;;;;1.92;1.80;;;15.80;95.90;;;;;;5070442;28;20029;-72
2022/05/27 03:42:19;;;;;;;3.83;1.98;;;15.70;95.50;;;;;;5062678;28;20410;-72
2022/05/27 03:45:05;;;;;;;3.45;2.75;;;15.70;95.80;;;;;;5053181;28;20032;-72
2022/05/27 03:47:32;;;;;;;3.40;2.05;;;15.60;95.90;;;;;;5072491;28;20035;-72
2022/05/27 03:49:59;;;;;;;4.85;3.15;;;15.70;95.80;;;;;;5070338;28;20047;-73
2022/05/27 03:52:30;;;;;;;3.38;3.08;;;15.70;95.80;;;;;;5065088;28;20052;-72
2022/05/27 03:54:56;;;;;;;2.53;2.33;;;15.70;95.90;;;;;;5065015;28;20061;-75
2022/05/27 03:57:22;;;;;;;2.83;2.28;;;15.70;96.10;;;;;;5068358;28;20446;-71
2022/05/27 03:59:48;;;;;;;3.17;2.42;;;15.70;96.10;;;;;;5070927;28;20103;-72
2022/05/27 04:02:14;;;;;;;3.88;2.75;;;15.70;96.20;;;;;;5059626;28;20041;-71
2022/05/27 04:04:41;;;;;;;4.93;3.17;;;15.70;95.70;;;;;;5065942;28;20033;-72
2022/05/27 04:07:07;;;;;;;3.10;2.13;;;15.60;95.70;;;;;;5068972;28;20039;-73
2022/05/27 04:09:33;;;;;;;5.90;3.58;;;15.60;95.90;;;;;;5070464;28;20079;-73
2022/05/27 04:12:00;;;;;;;3.88;3.13;;;15.60;95.70;;;;;;5065201;28;20051;-73
2022/05/27 04:14:26;;;;;;;3.58;2.70;;;15.60;95.90;;;;;;5070240;28;20028;-72
2022/05/27 04:17:27;;;;;;;2.95;2.42;;;15.60;95.50;;;;;;5072132;28;20028;-74
2022/05/27 04:19:38;;;;;;;4.93;2.75;;;15.60;95.60;;;;;;5069053;28;20033;-72
2022/05/27 04:22:04;;;;;;;2.83;2.20;;;15.50;95.60;;;;;;5070253;28;20492;-73
2022/05/27 04:24:30;;;;;;;3.65;2.72;;;15.60;95.60;;;;;;5069231;28;20033;-72
2022/05/27 04:26:57;;;;;;;4.50;2.72;;;15.60;95.50;;;;;;5064177;28;20028;-72
2022/05/27 04:29:23;;;;;;;8.45;2.30;;;15.60;95.50;;;;;;5067136;28;20478;-72
2022/05/27 04:31:49;;;;;;;3.55;2.63;;;15.60;95.40;;;;;;5071258;28;20036;-74
2022/05/27 04:34:15;;;;;;;3.97;2.60;;;15.60;95.40;;;;;;5069827;28;20025;-73
2022/05/27 04:36:41;;;;;;;2.13;1.77;;;15.60;95.60;;;;;;5072593;28;20037;-72
2022/05/27 04:39:08;;;;;;;3.33;2.03;;;15.70;95.30;;;;;;5074391;28;20036;-72
2022/05/27 04:41:34;;;;;;;3.45;2.88;;;15.70;95.20;;;;;;5069048;28;20040;-72
2022/05/27 04:44:00;;;;;;;2.85;2.10;;;15.70;95.20;;;;;;5068424;28;20473;-71
2022/05/27 04:46:26;;;;;;;2.22;1.98;;;15.70;95.00;;;;;;5074211;28;20401;-72
2022/05/27 04:48:53;;;;;;;2.90;2.60;;;15.60;94.90;;;;;;5067750;28;20036;-73
2022/05/27 04:51:19;;;;;;;5.55;2.63;;;15.60;94.70;;;;;;5072370;28;20070;-72
2022/05/27 04:53:45;;;;;;;9.43;4.40;;;15.70;94.90;;;;;;5055418;28;20055;-71
2022/05/27 04:56:12;;;;;;;1.75;1.65;;;15.70;94.70;;;;;;5074326;28;20040;-71
2022/05/27 04:58:38;;;;;;;4.90;3.72;;;15.70;94.60;;;;;;5065531;28;20040;-71
2022/05/27 05:01:04;;;;;;;5.75;3.15;;;15.70;94.90;;;;;;5072625;28;20041;-72
2022/05/27 05:03:30;;;;;;;2.63;2.30;;;15.70;95.00;;;;;;5071065;28;20059;-72
2022/05/27 05:05:56;;;;;;;3.78;3.28;;;15.70;95.10;;;;;;5067080;28;20044;-72
2022/05/27 05:08:38;;;;;;;3.58;2.72;;;15.70;95.40;;;;;;5072337;28;20441;-71
2022/05/27 05:11:06;;;;;;;2.53;2.30;;;15.70;95.60;;;;;;5067326;28;20443;-72
2022/05/27 05:13:33;;;;;;;4.18;2.13;;;15.70;95.00;;;;;;5062649;28;20460;-70
2022/05/27 05:15:59;;;;;;;3.83;2.97;;;15.70;94.90;;;;;;5067509;28;20037;-71
2022/05/27 05:18:26;;;;;;;3.50;2.47;;;15.80;94.20;;;;;;5073804;28;20028;-71
2022/05/27 05:20:52;;;;;;;3.28;1.83;;;15.80;94.40;;;;;;5070557;28;20029;-74
2022/05/27 05:23:18;;;;;;;2.65;2.10;;;15.80;94.20;;;;;;5066337;28;20465;-71
2022/05/27 05:25:45;;;;;;;4.60;2.45;;;15.80;94.20;;;;;;5072292;28;20032;-71
2022/05/27 05:28:11;;;;;;;3.85;2.25;;;15.80;93.90;;;;;;5061959;28;20056;-72
2022/05/27 05:30:37;;;;;;;3.88;2.70;;;15.80;94.20;;;;;;5070074;28;20052;-71
2022/05/27 05:33:03;;;;;;;3.90;3.38;;;15.90;94.10;;;;;;5067731;28;20067;-71
2022/05/27 05:35:29;;;;;;;1.92;1.63;;;15.90;94.40;;;;;;5069586;28;20051;-71
2022/05/27 05:37:57;;;;;;;2.83;2.17;;;15.90;93.50;;;;;;5071373;28;20045;-71
2022/05/27 05:40:23;;;;;;;4.32;2.38;;;16.00;93.90;;;;;;5060515;28;20444;-72
2022/05/27 05:42:50;;;;;;;4.05;2.35;;;16.00;93.20;;;;;;5059243;28;20036;-75
2022/05/27 05:45:18;;;;;;;2.85;2.05;;;16.00;93.40;;;;;;5065122;28;20032;-72
2022/05/27 05:47:44;;;;;;;3.10;2.15;;;16.10;93.00;;;;;;5067891;28;20056;-71
2022/05/27 05:50:13;;;;;;;2.47;2.13;;;16.10;92.70;;;;;;5057881;28;20055;-72
2022/05/27 05:52:40;;;;;;;3.08;1.75;;;16.10;92.40;;;;;;5067728;28;20052;-72
2022/05/27 05:55:07;;;;;;;3.55;2.00;;;16.10;92.40;;;;;;5069937;28;20044;-72
2022/05/27 05:57:37;;;;;;;3.65;2.00;;;16.30;92.80;;;;;;5072336;28;20029;-72
2022/05/27 06:00:04;;;;;;;2.95;1.60;;;16.40;92.40;;;;;;5070938;28;20504;-72
2022/05/27 06:02:38;;;;;;;3.17;2.45;;;16.50;92.20;;;;;;5074315;28;20385;-71
2022/05/27 06:05:04;;;;;;;2.22;2.03;;;16.50;91.80;;;;;;5070377;28;20036;-72
2022/05/27 06:07:32;;;;;;;6.10;2.85;;;16.60;91.40;;;;;;5071549;28;20033;-73
2022/05/27 06:09:59;;;;;;;2.70;2.20;;;16.50;91.70;;;;;;5065987;28;20059;-72
2022/05/27 06:12:26;;;;;;;3.55;2.28;;;16.60;91.50;;;;;;5069708;28;20037;-72
2022/05/27 06:14:56;;;;;;;2.42;2.22;;;16.60;91.60;;;;;;5065291;28;20045;-76
2022/05/27 06:17:24;;;;;;;3.45;2.15;;;16.60;91.60;;;;;;5072796;28;20025;-72
2022/05/27 06:19:50;;;;;;;3.67;2.20;;;16.70;90.80;;;;;;5070068;28;20041;-70
2022/05/27 06:22:17;;;;;;;3.17;1.88;;;16.70;90.60;;;;;;5052072;28;20025;-71
2022/05/27 06:24:43;;;;;;;5.70;1.70;;;16.70;91.00;;;;;;5072417;28;20032;-72
2022/05/27 06:27:10;;;;;;;6.43;1.65;;;16.60;90.80;;;;;;5066255;28;20029;-72
2022/05/27 06:35:07;;;;;;;3.67;2.10;;;16.70;90.70;;;;;;5072116;28;20028;-73
2022/05/27 06:37:34;;;;;;;2.33;1.83;;;16.70;90.80;;;;;;5066988;28;20028;-72
2022/05/27 06:40:00;;;;;;;2.03;1.65;;;16.70;90.40;;;;;;5068728;28;20385;-70
2022/05/27 06:42:27;;;;;;;3.70;1.75;;;16.60;90.80;;;;;;5051219;28;20041;-70
2022/05/27 06:44:55;;;;;;;2.33;2.08;;;16.70;90.70;;;;;;5048444;28;20036;-70
2022/05/27 06:47:21;;;;;;;4.15;2.15;;;16.70;90.50;;;;;;5066394;28;20457;-70
2022/05/27 06:49:48;;;;;;;1.90;1.70;;;16.70;90.70;;;;;;5069673;28;20041;-72
2022/05/27 06:52:15;;;;;;;3.58;2.03;;;16.80;90.50;;;;;;5062965;28;20032;-72
2022/05/27 06:54:42;;;;;;;11.13;1.80;;;16.80;90.30;;;;;;5069655;28;20055;-72
2022/05/27 06:57:09;;;;;;;2.55;1.45;;;16.90;90.60;;;;;;5070514;28;20028;-74
2022/05/27 06:59:36;;;;;;;2.03;1.65;;;17.00;89.50;;;;;;5068357;28;20051;-72
2022/05/27 07:02:04;;;;;;;2.53;1.65;;;17.00;89.40;;;;;;5065495;28;20059;-72
2022/05/27 07:04:30;;;;;;;1.50;1.40;;;17.20;88.70;;;;;;5052490;28;20059;-71
2022/05/27 07:06:57;;;;;;;3.90;1.90;;;17.50;87.70;;;;;;5063111;28;20362;-72
2022/05/27 07:09:25;;;;;;;4.43;1.90;;;17.80;85.80;;;;;;5050856;28;20043;-72
2022/05/27 07:11:55;;;;;;;2.75;2.05;;;18.10;83.60;;;;;;5070004;28;20059;-72
2022/05/27 07:14:21;;;;;;;1.77;1.33;;;18.20;83.70;;;;;;5061905;28;20063;-73
2022/05/27 07:16:48;;;;;;;12.95;2.05;;;18.30;82.40;;;;;;5072914;28;20025;-72
2022/05/27 07:19:19;;;;;;;3.03;1.88;;;18.70;81.60;;;;;;5063936;28;20469;-71
2022/05/27 07:21:47;;;;;;;3.85;2.70;;;18.70;81.50;;;;;;5064870;28;20380;-74
2022/05/27 07:24:15;;;;;;;3.47;2.53;;;18.90;81.10;;;;;;5045654;28;20032;-71
2022/05/27 07:26:42;;;;;;;2.92;1.92;;;18.60;81.30;;;;;;5065029;28;20033;-73
2022/05/27 07:29:09;;;;;;;2.35;1.83;;;18.70;81.50;;;;;;5063055;28;20033;-70
2022/05/27 07:31:36;;;;;;;2.17;1.98;;;18.90;80.90;;;;;;5059503;28;20044;-71
2022/05/27 07:34:03;;;;;;;4.60;2.35;;;18.90;80.50;;;;;;5068032;28;20037;-72
2022/05/27 07:36:30;;;;;;;1.98;1.75;;;18.90;79.50;;;;;;5071237;28;20039;-72
2022/05/27 07:38:57;;;;;;;2.10;1.80;;;18.70;80.70;;;;;;5053142;28;20371;-73
2022/05/27 07:41:26;;;;;;;3.25;2.28;;;18.50;80.60;;;;;;5066133;28;20028;-73
2022/05/27 07:43:54;;;;;;;2.57;1.53;;;18.50;81.30;;;;;;5069237;28;20024;-72
2022/05/27 07:46:22;;;;;;;2.63;1.52;;;18.30;82.50;;;;;;5071542;28;20037;-74
2022/05/27 07:48:48;;;;;;;6.50;1.73;;;18.40;82.40;;;;;;5074056;28;20032;-73
2022/05/27 07:51:15;;;;;;;2.80;1.67;;;18.60;82.20;;;;;;5066747;28;20044;-72
2022/05/27 07:53:41;;;;;;;1.80;1.63;;;18.60;82.60;;;;;;5072629;28;20040;-72
2022/05/27 07:56:10;;;;;;;2.92;1.27;;;18.50;81.70;;;;;;5069458;28;20043;-72
2022/05/27 07:58:36;;;;;;;2.47;1.75;;;18.40;81.90;;;;;;5072853;28;20032;-72
2022/05/27 08:01:04;;;;;;;1.73;1.55;;;18.30;82.90;;;;;;5062549;28;20024;-72
2022/05/27 08:03:30;;;;;;;1.70;1.08;;;18.10;82.70;;;;;;5074772;28;20512;-73
2022/05/27 08:05:58;;;;;;;2.08;1.52;;;18.10;83.90;;;;;;5067559;28;20063;-72
2022/05/27 08:08:25;;;;;;;4.10;1.77;;;18.10;83.30;;;;;;5071766;28;20367;-72
2022/05/27 08:10:52;;;;;;;2.30;1.00;;;18.00;84.20;;;;;;5072344;28;20488;-72
2022/05/27 08:13:18;;;;;;;2.45;1.63;;;17.90;83.90;;;;;;5069191;28;20063;-73
2022/05/27 08:15:45;;;;;;;1.77;1.25;;;17.70;85.70;;;;;;5055622;28;20033;-72
2022/05/27 08:18:11;;;;;;;1.35;1.15;;;17.60;86.40;;;;;;5072141;28;20043;-71
2022/05/27 08:20:39;;;;;;;0.93;0.82;;;17.70;86.80;;;;;;5076621;28;20032;-71
2022/05/27 08:23:06;;;;;;;1.27;1.17;;;17.70;86.10;;;;;;5072656;28;20036;-70
2022/05/27 08:25:33;;;;;;;1.25;0.95;;;17.70;86.10;;;;;;5074866;28;20040;-70
2022/05/27 08:27:59;;;;;;;1.85;1.23;;;17.70;86.50;;;;;;5074793;28;20041;-72
2022/05/27 08:30:29;;;;;;;7.72;1.55;;;17.60;87.50;;;;;;5069640;28;20043;-72
2022/05/27 08:32:56;;;;;;;0.82;0.80;;;17.50;86.80;;;;;;5066582;28;20048;-77
2022/05/27 08:38:14;;;;;;;1.25;0.85;;;17.60;86.70;;;;;;5072934;28;20032;-71
2022/05/27 08:41:04;;;;;;;2.00;1.00;;;17.70;86.80;;;;;;5063552;28;20242;-71
2022/05/27 08:43:43;;;;;;;1.58;1.10;;;17.80;86.70;;;;;;5051373;28;20040;-72
2022/05/27 08:46:46;;;;;;;1.30;0.82;;;17.80;86.60;;;;;;5068343;28;20025;-71
2022/05/27 08:49:37;;;;;;;1.60;0.85;;;17.70;87.20;;;;;;5065359;28;20035;-72
2022/05/27 08:52:21;;;;;;;2.25;1.23;;;17.90;87.30;;;;;;5062032;28;20051;-72
2022/05/27 08:55:01;;;;;;;5.88;1.30;;;18.10;85.70;;;;;;5065699;28;20040;-71
2022/05/27 09:00:20;;;;;;;1.52;1.10;;;18.20;85.90;;;;;;5054491;28;20036;-72
2022/05/27 09:03:05;;;;;;;1.95;1.10;;;18.10;85.30;;;;;;5050730;28;20048;-72
2022/05/27 09:05:40;;;;;;;1.88;1.38;;;18.10;85.20;;;;;;5067923;28;20040;-75
2022/05/27 09:08:20;;;;;;;1.13;0.98;;;17.90;87.60;;;;;;5065637;28;20029;-73
2022/05/27 09:11:12;;;;;;;1.27;1.20;;;17.90;87.30;;;;;;5067219;28;20048;-71
2022/05/27 09:14:14;;;;;;;1.80;1.30;;;17.80;87.40;;;;;;5067477;28;20055;-71
2022/05/27 09:17:10;;;;;;;3.17;1.65;;;17.80;87.70;;;;;;5066324;28;20429;-76
2022/05/27 09:19:45;;;;;;;5.10;1.83;;;17.80;89.00;;;;;;5052850;28;20048;-71
2022/05/27 09:22:27;;;;;;;1.80;1.55;;;17.70;88.20;;;;;;5065278;28;20035;-72
2022/05/27 09:25:19;;;;;;;1.92;1.45;;;17.60;90.10;;;;;;5064711;28;20036;-74
2022/05/27 09:28:27;;;;;;;2.80;1.90;;;17.50;90.20;;;;;;5062206;28;20458;-73
2022/05/27 09:30:57;;;;;;;1.35;1.25;;;17.50;90.70;;;;;;5063215;28;20389;-72
2022/05/27 09:33:26;;;;;;;1.67;1.58;;;17.50;90.20;;;;;;5069140;28;20041;-72
2022/05/27 09:36:15;;;;;;;1.98;1.60;;;17.60;90.10;;;;;;5073286;28;20017;-72
2022/05/27 09:38:55;;;;;;;2.75;1.92;;;17.60;90.20;;;;;;5046824;28;20040;-72
2022/05/27 09:41:33;;;;;;;2.13;1.30;;;17.80;90.00;;;;;;5070559;28;20473;-72
2022/05/27 09:44:21;;;;;;;5.65;1.63;;;17.90;89.70;;;;;;5062671;28;20040;-77
2022/05/27 09:46:48;;;;;;;2.10;1.90;;;18.10;88.00;;;;;;5066992;28;20059;-72
2022/05/27 09:49:14;;;;;;;1.70;1.60;;;18.00;87.70;;;;;;5053827;28;20048;-72
2022/05/27 09:51:40;;;;;;;1.90;1.37;;;18.00;88.40;;;;;;5069073;28;20039;-73
2022/05/27 09:54:34;;;;;;;1.90;1.55;;;18.00;87.20;;;;;;5052235;28;20241;-72
2022/05/27 09:57:13;;;;;;;1.48;1.33;;;18.00;88.80;;;;;;5069193;28;20032;-75
2022/05/27 09:59:49;;;;;;;3.75;1.42;;;18.20;87.50;;;;;;5071449;28;20059;-71
2022/05/27 10:02:26;;;;;;;1.95;1.45;;;18.40;86.40;;;;;;5069706;28;20473;-70
2022/05/27 10:05:05;;;;;;;2.25;1.45;;;18.30;85.10;;;;;;5051541;28;20025;-72
2022/05/27 10:07:39;;;;;;;1.65;1.10;;;18.40;86.00;;;;;;5070285;28;20045;-72
2022/05/27 10:10:35;;;;;;;1.73;1.40;;;18.50;85.20;;;;;;5072306;28;20052;-71
2022/05/27 10:13:24;;;;;;;1.98;0.85;;;18.40;84.00;;;;;;5052677;28;20048;-73
2022/05/27 10:15:50;;;;;;;2.75;1.10;;;18.40;86.20;;;;;;5070870;28;20040;-71
2022/05/27 10:18:20;;;;;;;2.72;1.75;;;18.70;84.20;;;;;;5067621;28;20464;-72
2022/05/27 10:21:06;;;;;;;1.42;1.33;;;19.20;82.80;;;;;;5066724;28;20371;-72
2022/05/27 10:23:36;;;;;;;1.05;0.88;;;19.20;81.80;;;;;;5048264;28;20069;-72
2022/05/27 10:26:21;;;;;;;1.27;1.17;;;19.00;81.70;;;;;;5061220;28;20056;-73
2022/05/27 10:28:57;;;;;;;1.30;1.08;;;18.50;83.60;;;;;;5062344;28;20045;-72
2022/05/27 10:31:24;;;;;;;1.67;1.05;;;18.50;84.40;;;;;;5063510;28;20041;-72
2022/05/27 10:33:50;;;;;;;2.10;1.10;;;18.70;83.20;;;;;;5066597;28;20044;-73
2022/05/27 10:36:38;;;;;;;1.02;0.93;;;18.60;84.80;;;;;;5071474;28;20028;-72
2022/05/27 10:39:06;;;;;;;1.58;1.25;;;18.50;83.60;;;;;;5067149;28;20461;-74
2022/05/27 10:41:42;;;;;;;1.50;1.10;;;18.50;86.30;;;;;;5056843;28;20040;-72
2022/05/27 10:44:35;;;;;;;1.25;0.98;;;18.50;85.20;;;;;;5066382;28;20133;-72
2022/05/27 10:47:01;;;;;;;2.35;1.67;;;18.50;83.60;;;;;;5068667;28;20032;-72
2022/05/27 10:49:58;;;;;;;1.75;1.17;;;18.50;84.10;;;;;;5064523;28;20464;-71
2022/05/27 10:52:51;;;;;;;1.73;1.02;;;18.50;85.60;;;;;;5063832;28;20049;-72
2022/05/27 10:55:40;;;;;;;1.10;0.98;;;18.60;84.70;;;;;;5061743;28;20028;-71
2022/05/27 11:02:16;;;;;;;1.38;1.15;;;18.40;84.50;;;;;;5001138;28;20443;-72
2022/05/27 11:04:45;;;;;;;0.80;0.52;;;18.50;84.60;;;;;;5069107;28;20032;-73
2022/05/27 11:07:11;;;;;;;1.33;1.10;;;18.30;85.10;;;;;;5060355;28;20051;-73
2022/05/27 11:10:02;;;;;;;0.88;0.80;;;18.30;86.40;;;;;;5059852;28;20028;-72
2022/05/27 11:16:17;;;;;;;1.38;0.88;;;18.50;84.70;;;;;;5067804;28;20020;-73
2022/05/27 11:19:22;;;;;;;2.25;0.73;;;18.50;85.70;;;;;;5065371;28;20103;-72
2022/05/27 11:22:12;;;;;;;1.95;0.80;;;18.40;86.50;;;;;;5060995;28;20474;-73
2022/05/27 11:24:42;;;;;;;0.82;0.65;;;18.40;87.10;;;;;;5063442;28;20461;-71
2022/05/27 11:27:27;;;;;;;7.28;0.95;;;18.30;86.90;;;;;;5067112;28;20032;-73
2022/05/27 11:30:11;;;;;;;1.08;0.70;;;18.00;87.70;;;;;;5053985;28;20055;-72
2022/05/27 11:32:59;;;;;;;3.90;0.98;;;18.10;88.50;;;;;;5067832;28;20071;-71
2022/05/27 11:35:54;;;;;;;1.90;1.08;;;18.10;88.10;;;;;;5070678;28;20025;-72
2022/05/27 11:38:44;;;;;;;2.17;0.93;;;18.20;87.50;;;;;;5066150;28;20036;-72
2022/05/27 11:41:49;;;;;;;1.83;1.00;;;18.20;88.30;;;;;;5050572;28;20481;-72
2022/05/27 11:44:49;;;;;;;1.67;1.25;;;18.00;88.40;;;;;;4983906;28;20034;-72
2022/05/27 11:47:25;;;;;;;;;;;18.20;89.00;;;;;;4989270;28;20042;-72
2022/05/27 11:49:53;;;;;;;1.23;0.57;;;18.30;87.30;;;;;;5045703;28;19913;-72
2022/05/27 11:52:41;;;;;;;0.68;0.40;;;18.60;85.90;;;;;;5061020;28;20028;-73
2022/05/27 11:55:13;;;;;;;4.40;0.57;;;18.90;85.10;;;;;;5063570;28;20037;-71
2022/05/27 11:57:58;;;;;;;0.60;0.60;;;19.00;85.20;;;;;;5069671;28;20040;-73
2022/05/27 12:00:29;;;;;;;1.63;0.95;;;19.00;85.20;;;;;;5064033;28;20044;-70
2022/05/27 12:03:05;;;;;;;1.08;0.70;;;19.00;85.40;;;;;;5061593;28;20049;-74
2022/05/27 12:05:38;;;;;;;1.60;1.10;;;19.10;85.40;;;;;;5059913;28;20047;-73
2022/05/27 12:08:41;;;;;;;3.20;1.00;;;19.10;83.50;;;;;;5068577;28;20037;-73
2022/05/27 12:11:21;;;;;;;1.60;1.20;;;19.20;83.90;;;;;;5048478;28;20040;-73
2022/05/27 12:13:53;;;;;;;0.55;0.55;;;19.40;83.40;;;;;;5061719;28;20051;-72
2022/05/27 12:16:29;;;;;;;1.15;0.55;;;19.60;82.10;;;;;;5063899;28;20036;-72
2022/05/27 12:18:58;;;;;;;0.70;0.50;;;20.00;80.50;;;;;;5064017;28;20033;-71
2022/05/27 12:21:28;;;;;;;0.88;0.50;;;19.80;79.40;;;;;;5069584;28;20362;-71
2022/05/27 12:24:01;;;;;;;0.88;0.40;;;19.70;79.30;;;;;;5066560;28;20028;-72
2022/05/27 12:26:34;;;;;;;0.60;0.60;;;19.80;77.40;;;;;;5066688;28;20055;-73
2022/05/27 12:29:11;;;;;;;1.58;0.60;;;19.60;79.70;;;;;;5064066;28;20028;-76
2022/05/27 12:31:38;;;;;;;0.88;0.50;;;20.10;78.30;;;;;;5063298;28;20044;-71
2022/05/27 12:34:26;;;;;;;7.38;0.90;;;20.00;76.20;;;;;;5066999;28;20036;-70
2022/05/27 12:36:54;;;;;;;0.68;0.60;;;19.80;77.40;;;;;;5071807;28;20036;-70
2022/05/27 12:39:26;;;;;;;2.03;0.88;;;19.60;78.00;;;;;;5067382;28;20024;-72
2022/05/27 12:42:27;;;;;;;1.20;0.70;;;19.40;78.70;;;;;;5072824;28;20043;-73
2022/05/27 12:44:54;;;;;;;4.53;1.40;;;19.70;78.40;;;;;;5072059;28;20032;-73
2022/05/27 12:47:28;;;;;;;0.77;0.55;;;20.10;76.70;;;;;;5071764;28;20677;-72
2022/05/27 12:50:06;;;;;;;0.70;0.32;;;20.40;74.50;;;;;;5068188;28;20462;-71
2022/05/27 12:52:32;;;;;;;0.90;0.57;;;20.30;74.10;;;;;;5070783;28;20024;-72
2022/05/27 12:55:05;;;;;;;0.73;0.65;;;19.90;74.40;;;;;;5067783;28;20146;-74
2022/05/27 13:00:57;;;;;;;0.40;0.40;;;20.40;72.70;;;;;;5072452;28;20037;-72
2022/05/27 13:03:42;;;;;;;1.08;0.70;;;20.40;73.50;;;;;;5062472;28;20044;-71
2022/05/27 13:06:13;;;;;;;1.35;0.60;;;20.50;74.40;;;;;;5067830;28;20040;-71
2022/05/27 13:09:09;;;;;;;1.08;0.80;;;20.50;74.10;;;;;;5073688;28;20427;-71
2022/05/27 13:11:39;;;;;;;1.48;0.80;;;20.80;71.20;;;;;;5071490;28;20055;-72
2022/05/27 13:14:05;;;;;;;2.20;0.70;;;20.50;71.90;;;;;;5071265;28;20047;-73
2022/05/27 13:16:32;;;;;;;0.60;0.50;;;20.50;72.90;;;;;;5073710;28;20036;-71
2022/05/27 13:19:04;;;;;;;0.95;0.63;;;20.80;72.20;;;;;;5067847;28;20040;-71
2022/05/27 13:21:33;;;;;;;0.60;0.60;;;20.90;70.20;;;;;;5069954;28;20060;-72
2022/05/27 13:24:06;;;;;;;0.75;0.63;;;20.90;70.30;;;;;;5069642;28;20044;-72
2022/05/27 13:26:57;;;;;;;0.73;0.65;;;21.00;70.40;;;;;;5064134;28;20450;-71
2022/05/27 13:29:24;;;;;;;;;;;21.00;69.50;;;;;;5071178;28;20029;-71
2022/05/27 13:31:58;;;;;;;0.40;0.30;;;21.20;69.50;;;;;;5066345;28;19916;-71
2022/05/27 13:34:59;;;;;;;0.40;0.40;;;21.30;68.70;;;;;;5051315;28;20044;-71
2022/05/27 13:37:40;;;;;;;0.47;0.45;;;21.10;69.50;;;;;;5067025;28;20501;-70
2022/05/27 13:40:10;;;;;;;1.40;0.50;;;21.10;70.10;;;;;;5070238;28;20048;-71
2022/05/27 13:42:42;;;;;;;0.68;0.55;;;21.10;69.00;;;;;;5067747;28;20024;-70
2022/05/27 13:45:13;;;;;;;0.40;0.40;;;21.30;69.00;;;;;;5069981;28;20036;-71
2022/05/27 13:47:43;;;;;;;;;;;21.50;68.90;;;;;;5072439;28;20032;-75
2022/05/27 13:50:30;;;;;;;1.13;0.43;;;21.80;69.00;;;;;;5063879;28;19916;-72